Terminal Aerodrome Forecast
Issued by NWS

Home | Current Version | Previous Version | Text Only | Print | Product List | Glossary On
Versions: 1 2 3 4 5 6 7 8 9 10 11 12 13 14 15
000
FTUS45 KTFX 240520
TAFCTB
TAF
KCTB 240520Z 2406/2506 21015KT P6SM SCT200 WS020/25030KT
     FM241200 24035G50KT P6SM SCT150
     FM242300 27035G50KT P6SM VCSH BKN070
     FM250400 29030G40KT P6SM VCSH BKN030=

USA.gov is the U.S. government's official web portal to all federal, state and local government web resources and services.